createdAt,value
2019-05-28T00:01:50.552Z,89.66
2019-05-28T00:04:54.235Z,89.41
2019-05-28T00:07:57.940Z,89.34
2019-05-28T00:11:01.507Z,89.30
2019-05-28T00:14:05.630Z,89.53
2019-05-28T00:17:09.244Z,89.37
2019-05-28T00:20:13.765Z,89.56
2019-05-28T00:23:17.391Z,88.96
2019-05-28T00:26:20.969Z,88.71
2019-05-28T00:29:24.558Z,88.48
2019-05-28T00:32:28.156Z,88.31
2019-05-28T00:35:31.763Z,88.29
2019-05-28T00:38:35.331Z,88.52
2019-05-28T00:41:38.968Z,88.51
2019-05-28T00:44:42.543Z,88.64
2019-05-28T00:47:46.385Z,88.53
2019-05-28T00:50:50.022Z,88.56
2019-05-28T00:53:53.773Z,88.53
2019-05-28T00:56:58.335Z,88.96
2019-05-28T01:00:02.690Z,89.20
2019-05-28T01:03:06.321Z,89.64
2019-05-28T01:06:09.920Z,89.74
2019-05-28T01:09:15.342Z,90.16
2019-05-28T01:12:18.944Z,90.32
2019-05-28T01:15:22.822Z,90.47
2019-05-28T01:18:28.102Z,90.74
2019-05-28T01:21:33.949Z,90.91
2019-05-28T01:24:37.573Z,90.87
2019-05-28T01:27:41.162Z,90.21
2019-05-28T01:30:56.019Z,89.82
2019-05-28T01:33:50.138Z,90.51
2019-05-28T01:36:53.762Z,89.76
2019-05-28T01:39:57.320Z,89.51
2019-05-28T01:43:00.949Z,89.32
2019-05-28T01:46:05.170Z,89.36
2019-05-28T01:49:08.771Z,89.01
2019-05-28T01:52:12.411Z,88.44
2019-05-28T01:55:16.114Z,89.56
2019-05-28T01:58:19.802Z,89.84
2019-05-28T02:01:23.386Z,90.16
2019-05-28T02:04:27.712Z,89.93
2019-05-28T02:07:31.354Z,89.73
2019-05-28T02:10:35.029Z,90.18
2019-05-28T02:13:38.557Z,89.89
2019-05-28T02:16:42.320Z,89.79
2019-05-28T02:19:45.934Z,90.00
2019-05-28T02:22:49.555Z,90.37
2019-05-28T02:25:53.133Z,90.26
2019-05-28T02:28:56.722Z,90.04
2019-05-28T02:32:00.337Z,90.24
2019-05-28T02:35:06.031Z,90.28
2019-05-28T02:38:09.638Z,90.77
2019-05-28T02:41:13.380Z,91.01
2019-05-28T02:44:16.961Z,90.76
2019-05-28T02:47:20.603Z,91.09
2019-05-28T02:50:51.649Z,90.76
2019-05-28T02:53:55.413Z,90.70
2019-05-28T02:57:00.098Z,90.72
2019-05-28T03:00:05.129Z,90.60
2019-05-28T03:03:10.653Z,90.63
2019-05-28T03:06:14.364Z,90.73
2019-05-28T03:09:21.419Z,89.62
2019-05-28T03:12:24.997Z,89.18
2019-05-28T03:15:29.329Z,88.87
2019-05-28T03:18:35.964Z,87.86
2019-05-28T03:21:41.863Z,87.80
2019-05-28T03:24:48.502Z,87.98
2019-05-28T03:27:52.211Z,87.33
2019-05-28T03:30:55.871Z,86.95
2019-05-28T03:33:59.578Z,86.86
2019-05-28T03:37:04.104Z,87.21
2019-05-28T03:40:09.554Z,87.24
2019-05-28T03:43:13.860Z,87.13
2019-05-28T03:46:17.391Z,86.84
2019-05-28T03:49:21.020Z,86.54
2019-05-28T03:52:24.609Z,86.38
2019-05-28T03:55:28.268Z,85.70
2019-05-28T03:58:31.938Z,85.21
2019-05-28T04:01:35.578Z,85.61
2019-05-28T04:04:39.216Z,84.98
2019-05-28T04:07:42.831Z,84.33
2019-05-28T04:10:46.491Z,83.37
2019-05-28T04:13:50.099Z,83.33
2019-05-28T04:16:53.723Z,83.34
2019-05-28T04:19:57.355Z,82.23
2019-05-28T04:23:00.908Z,81.34
2019-05-28T04:26:04.654Z,80.34
2019-05-28T04:29:08.287Z,80.37
2019-05-28T04:32:11.891Z,80.45
2019-05-28T04:35:15.597Z,80.06
2019-05-28T04:38:19.229Z,80.20
2019-05-28T04:41:22.788Z,80.74
2019-05-28T04:44:26.382Z,81.04
2019-05-28T04:47:29.969Z,80.40
2019-05-28T04:50:33.594Z,79.83
2019-05-28T04:53:37.172Z,79.72
2019-05-28T04:56:40.778Z,80.07
2019-05-28T04:59:44.344Z,79.49
2019-05-28T05:02:58.537Z,79.29
2019-05-28T05:05:53.257Z,79.75
2019-05-28T05:08:56.832Z,78.40
2019-05-28T05:12:00.418Z,77.90
2019-05-28T05:15:09.419Z,78.50
2019-05-28T05:18:19.843Z,77.98
2019-05-28T05:21:28.354Z,78.59
2019-05-28T05:24:32.290Z,78.36
2019-05-28T05:27:36.078Z,78.61
2019-05-28T05:30:39.627Z,76.95
2019-05-28T05:33:45.770Z,78.23
2019-05-28T05:36:49.370Z,77.98
2019-05-28T05:39:52.956Z,77.58
2019-05-28T05:42:56.606Z,78.71
2019-05-28T05:46:00.291Z,77.97
2019-05-28T05:49:03.898Z,78.41
2019-05-28T05:52:07.490Z,78.28
2019-05-28T05:55:11.493Z,77.82
2019-05-28T05:58:15.090Z,77.39
2019-05-28T06:01:18.656Z,78.71
2019-05-28T06:04:22.512Z,76.93
2019-05-28T06:07:26.373Z,75.50
2019-05-28T06:10:29.947Z,75.62
2019-05-28T06:13:33.582Z,76.68
2019-05-28T06:16:37.569Z,75.74
2019-05-28T06:19:41.244Z,74.50
2019-05-28T06:22:44.810Z,73.63
2019-05-28T06:25:48.494Z,73.29
2019-05-28T06:28:52.144Z,71.80
2019-05-28T06:31:55.800Z,70.82
2019-05-28T06:34:59.424Z,70.00
2019-05-28T06:38:03.171Z,69.10
2019-05-28T06:41:06.864Z,67.84
2019-05-28T06:44:10.553Z,68.25
2019-05-28T06:47:14.176Z,67.23
2019-05-28T06:50:18.401Z,66.30
2019-05-28T06:53:22.109Z,66.95
2019-05-28T06:56:25.917Z,65.01
2019-05-28T06:59:29.706Z,66.12
2019-05-28T07:02:33.552Z,62.94
2019-05-28T07:05:37.192Z,63.59
2019-05-28T07:08:40.894Z,62.27
2019-05-28T07:11:44.559Z,62.17
2019-05-28T07:14:48.335Z,61.38
2019-05-28T07:17:52.011Z,61.51
2019-05-28T07:20:55.744Z,64.35
2019-05-28T07:23:59.419Z,62.61
2019-05-28T07:27:03.390Z,61.94
2019-05-28T07:30:10.340Z,61.10
2019-05-28T07:33:14.060Z,59.39
2019-05-28T07:36:17.695Z,58.51
2019-05-28T07:39:21.353Z,59.69
2019-05-28T07:42:32.871Z,59.23
2019-05-28T07:45:30.389Z,59.99
2019-05-28T07:48:34.037Z,60.12
2019-05-28T07:51:37.692Z,61.46
2019-05-28T07:54:41.335Z,59.87
2019-05-28T07:57:45.149Z,59.24
2019-05-28T08:00:48.857Z,59.31
2019-05-28T08:03:52.598Z,59.58
2019-05-28T08:06:56.419Z,60.93
2019-05-28T08:10:00.150Z,59.39
2019-05-28T08:13:05.222Z,59.66
2019-05-28T08:16:18.143Z,58.78
2019-05-28T08:19:14.547Z,56.97
2019-05-28T08:22:18.358Z,55.55
2019-05-28T08:25:41.539Z,55.89
2019-05-28T08:28:27.489Z,55.40
2019-05-28T08:31:31.113Z,55.89
2019-05-28T08:34:34.853Z,55.12
2019-05-28T08:37:41.394Z,53.68
2019-05-28T08:40:45.209Z,54.89
2019-05-28T08:43:48.861Z,53.81
2019-05-28T08:46:52.758Z,54.51
2019-05-28T08:49:56.482Z,54.13
2019-05-28T08:53:00.422Z,51.91
2019-05-28T08:56:04.493Z,51.21
2019-05-28T08:59:08.192Z,52.64
2019-05-28T09:02:27.254Z,50.21
2019-05-28T09:05:26.308Z,50.86
2019-05-28T09:08:38.735Z,50.79
2019-05-28T09:11:29.663Z,49.95
2019-05-28T09:14:54.338Z,48.72
2019-05-28T09:17:38.698Z,46.58
2019-05-28T09:20:42.444Z,48.21
2019-05-28T09:23:46.091Z,48.75
2019-05-28T09:26:49.773Z,47.15
2019-05-28T09:29:55.370Z,46.64
2019-05-28T09:32:58.827Z,47.53
2019-05-28T09:36:08.714Z,48.84
2019-05-28T09:39:08.658Z,46.41
2019-05-28T09:42:12.372Z,47.18
2019-05-28T09:45:23.658Z,45.50
2019-05-28T09:48:21.525Z,44.02
2019-05-28T09:51:25.186Z,43.67
2019-05-28T09:54:28.874Z,42.77
2019-05-28T09:57:46.352Z,41.37
2019-05-28T10:00:54.408Z,42.46
2019-05-28T10:03:44.242Z,39.19
2019-05-28T10:06:47.914Z,39.43
2019-05-28T10:09:51.710Z,35.75
2019-05-28T10:12:55.395Z,37.59
2019-05-28T10:15:59.023Z,39.73
2019-05-28T10:19:02.793Z,39.66
2019-05-28T10:22:06.489Z,38.10
2019-05-28T10:25:12.257Z,38.91
2019-05-28T10:28:15.960Z,38.34
2019-05-28T10:31:19.730Z,39.93
2019-05-28T10:34:23.367Z,39.81
2019-05-28T10:37:27.348Z,39.64
2019-05-28T10:40:30.917Z,41.00
2019-05-28T10:43:34.828Z,42.37
2019-05-28T10:46:41.377Z,43.55
2019-05-28T10:49:45.214Z,43.59
2019-05-28T10:52:48.921Z,44.26
2019-05-28T10:55:52.614Z,42.52
2019-05-28T10:58:56.243Z,43.16
2019-05-28T11:01:59.934Z,41.35
2019-05-28T11:05:05.807Z,40.53
2019-05-28T11:08:09.481Z,41.74
2019-05-28T11:11:13.136Z,41.26
2019-05-28T11:14:16.755Z,41.11
2019-05-28T11:17:20.421Z,43.19
2019-05-28T11:20:24.887Z,41.52
2019-05-28T11:23:28.633Z,40.64
2019-05-28T11:26:32.322Z,41.35
2019-05-28T11:29:36.007Z,44.29
2019-05-28T11:32:39.782Z,43.72
2019-05-28T11:35:43.459Z,44.11
2019-05-28T11:38:47.420Z,43.81
2019-05-28T11:41:51.056Z,42.71
2019-05-28T11:44:59.927Z,41.88
2019-05-28T11:48:03.769Z,42.40
2019-05-28T11:51:07.468Z,42.03
2019-05-28T11:54:11.169Z,42.61
2019-05-28T11:57:14.906Z,43.74
2019-05-28T12:00:19.093Z,42.63
2019-05-28T12:03:22.830Z,42.90
2019-05-28T12:06:26.665Z,42.22
2019-05-28T12:09:30.383Z,41.23
2019-05-28T12:12:35.764Z,40.87
2019-05-28T12:15:39.606Z,41.94
2019-05-28T12:18:43.477Z,40.98
2019-05-28T12:21:47.247Z,41.03
2019-05-28T12:24:51.061Z,40.61
2019-05-28T12:27:54.877Z,42.09
2019-05-28T12:30:58.541Z,41.43
2019-05-28T12:34:02.209Z,40.58
2019-05-28T12:37:05.949Z,41.55
2019-05-28T12:40:10.149Z,40.44
2019-05-28T12:43:13.840Z,44.51
2019-05-28T12:46:17.443Z,40.11
2019-05-28T12:49:21.238Z,40.60
2019-05-28T12:52:24.876Z,37.57
2019-05-28T12:55:28.568Z,38.81
2019-05-28T12:58:42.326Z,40.43
2019-05-28T13:01:37.628Z,39.47
2019-05-28T13:04:41.247Z,39.65
2019-05-28T13:07:44.981Z,39.61
2019-05-28T13:10:48.746Z,41.32
2019-05-28T13:13:52.502Z,40.58
2019-05-28T13:16:56.240Z,42.17
2019-05-28T13:19:59.888Z,42.70
2019-05-28T13:23:03.586Z,42.87
2019-05-28T13:26:07.260Z,42.06
2019-05-28T13:29:10.990Z,42.82
2019-05-28T13:32:14.623Z,44.12
2019-05-28T13:35:20.017Z,43.92
2019-05-28T13:38:27.339Z,45.26
2019-05-28T13:41:29.143Z,43.88
2019-05-28T13:44:32.773Z,44.59
2019-05-28T13:47:36.531Z,47.06
2019-05-28T13:50:40.252Z,44.08
2019-05-28T13:53:43.987Z,43.53
2019-05-28T13:56:47.621Z,43.01
2019-05-28T13:59:51.485Z,43.15
2019-05-28T14:02:55.651Z,43.76
2019-05-28T14:05:59.250Z,42.59
2019-05-28T14:09:02.972Z,42.93
2019-05-28T14:12:06.879Z,43.41
2019-05-28T14:15:11.670Z,45.23
2019-05-28T14:18:15.523Z,42.57
2019-05-28T14:21:19.255Z,42.83
2019-05-28T14:24:22.955Z,42.98
2019-05-28T14:27:26.654Z,42.82
2019-05-28T14:30:30.852Z,41.49
2019-05-28T14:33:34.603Z,41.25
2019-05-28T14:36:38.263Z,40.92
2019-05-28T14:39:41.980Z,41.12
2019-05-28T14:42:45.626Z,40.75
2019-05-28T14:45:49.260Z,41.29
2019-05-28T14:48:52.920Z,39.25
2019-05-28T14:51:56.762Z,39.75
2019-05-28T14:55:00.428Z,39.47
2019-05-28T14:58:05.462Z,40.10
2019-05-28T15:01:09.760Z,40.83
2019-05-28T15:04:13.444Z,40.21
2019-05-28T15:07:17.109Z,40.38
2019-05-28T15:10:22.390Z,42.23
2019-05-28T15:13:26.306Z,41.02
2019-05-28T15:16:30.155Z,41.29
2019-05-28T15:19:33.798Z,40.52
2019-05-28T15:22:38.198Z,41.41
2019-05-28T15:25:41.900Z,40.66
2019-05-28T15:28:45.808Z,40.56
2019-05-28T15:31:49.622Z,40.68
2019-05-28T15:34:53.282Z,41.04
2019-05-28T15:37:56.949Z,40.13
2019-05-28T15:41:00.629Z,40.68
2019-05-28T15:44:04.399Z,41.03
2019-05-28T15:47:08.163Z,40.82
2019-05-28T15:50:16.750Z,41.36
2019-05-28T15:53:20.419Z,41.24
2019-05-28T15:56:24.109Z,41.01
2019-05-28T15:59:27.804Z,40.16
2019-05-28T16:02:31.452Z,39.51
2019-05-28T16:05:35.226Z,41.14
2019-05-28T16:08:38.867Z,42.00
2019-05-28T16:11:42.535Z,41.91
2019-05-28T16:14:46.264Z,42.15
2019-05-28T16:17:49.935Z,41.88
2019-05-28T16:20:53.618Z,42.76
2019-05-28T16:23:57.275Z,42.09
2019-05-28T16:27:01.089Z,42.16
2019-05-28T16:30:07.768Z,43.01
2019-05-28T16:33:11.397Z,42.43
2019-05-28T16:36:15.157Z,42.41
2019-05-28T16:39:19.108Z,42.29
2019-05-28T16:42:22.839Z,43.07
2019-05-28T16:45:26.669Z,43.72
2019-05-28T16:48:30.391Z,43.52
2019-05-28T16:51:33.987Z,44.83
2019-05-28T16:54:37.731Z,43.71
2019-05-28T16:57:41.400Z,43.93
2019-05-28T17:00:45.196Z,45.10
2019-05-28T17:03:48.933Z,46.28
2019-05-28T17:06:52.586Z,47.02
2019-05-28T17:09:56.228Z,46.21
2019-05-28T17:12:59.880Z,46.75
2019-05-28T17:16:03.656Z,47.83
2019-05-28T17:19:07.309Z,46.23
2019-05-28T17:22:11.442Z,46.76
2019-05-28T17:25:16.783Z,47.37
2019-05-28T17:28:20.627Z,47.48
2019-05-28T17:31:24.333Z,48.65
2019-05-28T17:34:28.314Z,48.14
2019-05-28T17:37:32.124Z,47.08
2019-05-28T17:40:48.046Z,47.58
2019-05-28T17:43:41.501Z,47.34
2019-05-28T17:46:45.239Z,49.00
2019-05-28T17:49:50.958Z,48.02
2019-05-28T17:52:54.874Z,49.13
2019-05-28T17:55:58.616Z,49.52
2019-05-28T17:59:02.259Z,50.04
2019-05-28T18:02:07.839Z,57.94
2019-05-28T18:05:11.948Z,60.61
2019-05-28T18:08:15.628Z,61.84
2019-05-28T18:11:19.335Z,62.40
2019-05-28T18:14:25.243Z,62.89
2019-05-28T18:17:28.905Z,63.37
2019-05-28T18:20:35.426Z,64.31
2019-05-28T18:23:41.117Z,64.20
2019-05-28T18:26:44.787Z,62.79
2019-05-28T18:29:48.373Z,67.62
2019-05-28T18:32:52.830Z,64.00
2019-05-28T18:35:56.522Z,66.76
2019-05-28T18:39:00.104Z,67.61
2019-05-28T18:42:05.075Z,68.89
2019-05-28T18:45:09.602Z,70.20
2019-05-28T18:48:13.179Z,70.72
2019-05-28T18:51:16.801Z,71.22
2019-05-28T18:54:20.470Z,71.51
2019-05-28T18:57:24.156Z,71.94
2019-05-28T19:00:27.856Z,72.50
2019-05-28T19:03:31.481Z,73.41
2019-05-28T19:06:35.066Z,73.10
2019-05-28T19:09:38.628Z,74.57
2019-05-28T19:12:42.369Z,75.26
2019-05-28T19:15:46.619Z,76.33
2019-05-28T19:18:50.195Z,76.75
2019-05-28T19:21:53.805Z,77.00
2019-05-28T19:24:57.558Z,77.17
2019-05-28T19:28:01.218Z,77.80
2019-05-28T19:31:06.107Z,77.28
2019-05-28T19:34:10.443Z,77.24
2019-05-28T19:37:14.270Z,77.85
2019-05-28T19:40:20.906Z,78.09
2019-05-28T19:43:24.551Z,78.59
2019-05-28T19:46:28.192Z,78.28
2019-05-28T19:49:31.835Z,78.54
2019-05-28T19:52:35.417Z,78.71
2019-05-28T19:55:38.996Z,78.70
2019-05-28T19:58:42.644Z,79.00
2019-05-28T20:01:46.218Z,79.19
2019-05-28T20:04:49.822Z,79.21
2019-05-28T20:07:53.439Z,79.21
2019-05-28T20:10:57.090Z,79.35
2019-05-28T20:14:05.329Z,79.02
2019-05-28T20:17:06.013Z,79.00
2019-05-28T20:20:12.625Z,78.61
2019-05-28T20:23:16.398Z,78.74
2019-05-28T20:26:20.060Z,78.67
2019-05-28T20:29:23.658Z,78.99
2019-05-28T20:32:27.460Z,79.10
2019-05-28T20:35:31.291Z,79.04
2019-05-28T20:38:35.007Z,79.36
2019-05-28T20:41:38.660Z,79.22
2019-05-28T20:44:42.247Z,79.35
2019-05-28T20:47:45.940Z,79.15
2019-05-28T20:50:49.571Z,79.07
2019-05-28T20:53:53.276Z,79.16
2019-05-28T20:56:58.047Z,79.51
2019-05-28T21:00:01.724Z,79.24
2019-05-28T21:03:05.569Z,80.31
2019-05-28T21:06:09.122Z,80.84
2019-05-28T21:09:13.076Z,80.40
2019-05-28T21:12:16.820Z,80.38
2019-05-28T21:15:20.578Z,80.54
2019-05-28T21:18:24.209Z,80.94
2019-05-28T21:21:27.906Z,79.79
2019-05-28T21:24:31.594Z,79.09
2019-05-28T21:27:35.284Z,78.56
2019-05-28T21:30:38.924Z,78.74
2019-05-28T21:33:42.512Z,78.94
2019-05-28T21:36:46.128Z,79.67
2019-05-28T21:39:49.886Z,79.58
2019-05-28T21:43:03.714Z,79.66
2019-05-28T21:46:00.333Z,80.40
2019-05-28T21:49:04.211Z,81.45
2019-05-28T21:52:17.764Z,81.39
2019-05-28T21:55:22.663Z,82.11
2019-05-28T21:58:26.300Z,81.87
2019-05-28T22:01:32.924Z,82.00
2019-05-28T22:04:36.532Z,82.35
2019-05-28T22:07:40.323Z,82.45
2019-05-28T22:10:43.900Z,82.47
2019-05-28T22:13:47.609Z,82.50
2019-05-28T22:16:51.250Z,82.58
2019-05-28T22:19:56.179Z,82.23
2019-05-28T22:23:00.522Z,82.84
2019-05-28T22:26:05.034Z,82.85
2019-05-28T22:29:08.793Z,82.33
2019-05-28T22:32:12.456Z,82.29
2019-05-28T22:35:16.583Z,81.92
2019-05-28T22:38:20.170Z,82.26
2019-05-28T22:41:23.794Z,82.23
2019-05-28T22:44:27.334Z,82.64
2019-05-28T22:47:31.008Z,82.50
2019-05-28T22:50:34.684Z,82.57
2019-05-28T22:53:40.279Z,82.08
2019-05-28T22:56:44.168Z,82.34
2019-05-28T22:59:47.848Z,82.10
2019-05-28T23:02:54.101Z,82.26
2019-05-28T23:05:58.973Z,81.96
2019-05-28T23:09:03.551Z,81.99
2019-05-28T23:12:08.171Z,82.21
2019-05-28T23:15:12.341Z,82.53
2019-05-28T23:18:15.986Z,82.46
2019-05-28T23:21:19.600Z,83.11
2019-05-28T23:24:23.204Z,83.13
2019-05-28T23:27:26.778Z,83.06
2019-05-28T23:30:30.395Z,83.39
2019-05-28T23:33:33.974Z,83.98
2019-05-28T23:36:37.551Z,83.56
2019-05-28T23:39:41.294Z,83.58
2019-05-28T23:42:44.856Z,84.05
2019-05-28T23:45:48.513Z,84.49
2019-05-28T23:48:52.291Z,86.13
2019-05-28T23:51:55.895Z,86.48
2019-05-28T23:54:59.431Z,87.12
2019-05-28T23:58:03.037Z,86.93
